createdAt,value
2017-11-14T00:00:23.715Z,87.70
2017-11-14T00:02:52.639Z,86.40
2017-11-14T00:05:20.801Z,87.10
2017-11-14T00:07:48.950Z,85.80
2017-11-14T00:10:17.100Z,87.50
2017-11-14T00:12:45.269Z,88.50
2017-11-14T00:15:19.447Z,90.30
2017-11-14T00:17:48.438Z,89.90
2017-11-14T00:20:16.597Z,90.00
2017-11-14T00:22:44.765Z,90.40
2017-11-14T00:25:13.048Z,90.30
2017-11-14T00:27:41.225Z,90.30
2017-11-14T00:30:09.384Z,89.30
2017-11-14T00:32:37.536Z,90.20
2017-11-14T00:35:05.750Z,90.10
2017-11-14T00:37:33.944Z,89.80
2017-11-14T00:40:02.132Z,90.00
2017-11-14T00:42:30.302Z,90.10
2017-11-14T00:44:58.467Z,90.40
2017-11-14T00:47:26.625Z,89.50
2017-11-14T00:49:54.789Z,89.00
2017-11-14T00:52:22.976Z,89.90
2017-11-14T00:54:57.977Z,90.20
2017-11-14T00:57:26.990Z,91.30
2017-11-14T00:59:55.158Z,91.30
2017-11-14T01:02:23.330Z,90.80
2017-11-14T01:04:51.616Z,91.00
2017-11-14T01:07:19.770Z,91.00
2017-11-14T01:09:48.699Z,90.90
2017-11-14T01:12:16.865Z,90.90
2017-11-14T01:14:45.134Z,89.10
2017-11-14T01:17:13.960Z,89.30
2017-11-14T01:19:42.124Z,90.00
2017-11-14T01:22:10.815Z,88.80
2017-11-14T01:24:42.541Z,87.00
2017-11-14T01:27:11.511Z,88.60
2017-11-14T01:29:40.515Z,90.40
2017-11-14T01:32:09.130Z,90.30
2017-11-14T01:34:38.911Z,90.60
2017-11-14T01:37:07.083Z,90.30
2017-11-14T01:39:35.242Z,89.20
2017-11-14T01:42:03.407Z,90.30
2017-11-14T01:44:31.608Z,90.10
2017-11-14T01:46:59.781Z,90.00
2017-11-14T01:49:27.947Z,90.40
2017-11-14T01:51:56.104Z,89.00
2017-11-14T01:54:24.315Z,87.70
2017-11-14T01:56:52.472Z,88.40
2017-11-14T01:59:21.404Z,87.30
2017-11-14T02:01:49.552Z,87.40
2017-11-14T02:04:17.854Z,88.60
2017-11-14T02:06:46.028Z,88.70
2017-11-14T02:09:14.188Z,90.00
2017-11-14T02:11:42.365Z,90.40
2017-11-14T02:14:13.997Z,90.10
2017-11-14T02:16:42.296Z,88.50
2017-11-14T02:19:11.134Z,89.80
2017-11-14T02:21:39.912Z,90.10
2017-11-14T02:24:08.131Z,90.10
2017-11-14T02:26:41.966Z,89.20
2017-11-14T02:29:10.139Z,87.90
2017-11-14T02:31:38.299Z,87.60
2017-11-14T02:34:06.563Z,87.60
2017-11-14T02:36:34.713Z,86.90
2017-11-14T02:39:10.387Z,87.30
2017-11-14T02:41:38.559Z,87.30
2017-11-14T02:44:06.855Z,89.20
2017-11-14T02:46:35.022Z,89.00
2017-11-14T02:49:03.170Z,89.20
2017-11-14T02:51:31.342Z,90.10
2017-11-14T02:54:00.540Z,90.60
2017-11-14T02:56:30.226Z,90.70
2017-11-14T02:58:58.397Z,90.70
2017-11-14T03:01:26.556Z,90.80
2017-11-14T03:03:58.388Z,90.60
2017-11-14T03:06:26.663Z,90.80
2017-11-14T03:08:54.839Z,91.40
2017-11-14T03:11:22.991Z,91.90
2017-11-14T03:13:51.282Z,92.50
2017-11-14T03:16:19.451Z,92.60
2017-11-14T03:18:47.606Z,92.60
2017-11-14T03:21:15.758Z,92.30
2017-11-14T03:23:48.243Z,92.70
2017-11-14T03:26:16.551Z,92.70
2017-11-14T03:28:44.724Z,92.80
2017-11-14T03:31:12.917Z,92.90
2017-11-14T03:33:41.192Z,92.10
2017-11-14T03:36:09.368Z,91.30
2017-11-14T03:38:38.072Z,90.90
2017-11-14T03:41:06.238Z,90.10
2017-11-14T03:43:34.487Z,90.70
2017-11-14T03:46:02.657Z,91.50
2017-11-14T03:48:30.823Z,91.20
2017-11-14T03:50:58.988Z,91.20
2017-11-14T03:53:28.456Z,91.00
2017-11-14T03:55:56.619Z,91.00
2017-11-14T03:58:24.784Z,89.60
2017-11-14T04:00:52.957Z,87.90
2017-11-14T04:03:24.756Z,87.70
2017-11-14T04:05:52.900Z,88.70
2017-11-14T04:08:21.155Z,90.00
2017-11-14T04:10:49.328Z,88.80
2017-11-14T04:13:17.499Z,87.70
2017-11-14T04:15:45.704Z,88.00
2017-11-14T04:18:13.859Z,87.60
2017-11-14T04:20:42.022Z,88.00
2017-11-14T04:23:10.183Z,86.70
2017-11-14T04:25:38.351Z,88.30
2017-11-14T04:28:06.541Z,90.20
2017-11-14T04:30:34.721Z,90.10
2017-11-14T04:33:02.911Z,90.40
2017-11-14T04:35:31.074Z,90.20
2017-11-14T04:37:59.243Z,90.10
2017-11-14T04:40:27.421Z,89.20
2017-11-14T04:42:55.577Z,88.50
2017-11-14T04:45:23.722Z,89.40
2017-11-14T04:47:52.699Z,86.10
2017-11-14T04:50:20.883Z,86.10
2017-11-14T04:52:49.741Z,86.30
2017-11-14T04:55:17.917Z,86.10
2017-11-14T04:57:46.085Z,85.90
2017-11-14T05:00:14.859Z,87.00
2017-11-14T05:02:43.032Z,85.10
2017-11-14T05:05:12.331Z,85.90
2017-11-14T05:07:40.731Z,85.70
2017-11-14T05:10:09.806Z,85.10
2017-11-14T05:12:38.050Z,83.80
2017-11-14T05:15:08.807Z,82.90
2017-11-14T05:17:36.979Z,82.90
2017-11-14T05:22:38.251Z,82.40
2017-11-14T05:25:06.821Z,82.50
2017-11-14T05:27:35.020Z,82.20
2017-11-14T05:30:04.113Z,78.70
2017-11-14T05:32:32.282Z,79.20
2017-11-14T05:35:02.527Z,79.10
2017-11-14T05:37:30.725Z,81.40
2017-11-14T05:39:58.908Z,81.70
2017-11-14T05:42:27.071Z,81.80
2017-11-14T05:44:55.256Z,82.00
2017-11-14T05:47:23.418Z,80.10
2017-11-14T05:49:51.589Z,83.80
2017-11-14T05:52:19.774Z,83.00
2017-11-14T05:54:47.944Z,82.00
2017-11-14T05:57:16.108Z,83.40
2017-11-14T05:59:44.264Z,83.30
2017-11-14T06:02:13.101Z,83.60
2017-11-14T06:04:41.407Z,82.80
2017-11-14T06:07:09.552Z,78.60
2017-11-14T06:09:38.463Z,80.60
2017-11-14T06:12:06.623Z,80.60
2017-11-14T06:14:35.001Z,80.60
2017-11-14T06:17:03.922Z,78.80
2017-11-14T06:19:32.135Z,78.60
2017-11-14T06:22:00.331Z,78.70
2017-11-14T06:24:35.492Z,78.60
2017-11-14T06:27:04.414Z,78.50
2017-11-14T06:29:32.563Z,78.60
2017-11-14T06:32:00.794Z,80.30
2017-11-14T06:34:29.939Z,79.40
2017-11-14T06:36:58.108Z,79.50
2017-11-14T06:39:26.255Z,80.60
2017-11-14T06:41:54.417Z,81.50
2017-11-14T06:44:22.625Z,80.60
2017-11-14T06:46:51.526Z,80.00
2017-11-14T06:49:19.685Z,79.80
2017-11-14T06:51:47.858Z,77.10
2017-11-14T06:54:16.206Z,79.20
2017-11-14T06:56:44.365Z,78.40
2017-11-14T06:59:12.577Z,79.90
2017-11-14T07:01:40.722Z,79.20
2017-11-14T07:04:09.901Z,79.50
2017-11-14T07:06:38.067Z,80.10
2017-11-14T07:09:06.725Z,79.30
2017-11-14T07:11:34.883Z,78.20
2017-11-14T07:14:03.191Z,76.40
2017-11-14T07:16:31.356Z,74.10
2017-11-14T07:19:00.220Z,74.60
2017-11-14T07:21:29.822Z,77.60
2017-11-14T07:23:58.131Z,77.60
2017-11-14T07:26:26.297Z,76.80
2017-11-14T07:28:54.468Z,76.80
2017-11-14T07:31:23.733Z,78.00
2017-11-14T07:33:59.706Z,77.80
2017-11-14T07:36:27.870Z,76.20
2017-11-14T07:38:56.196Z,74.90
2017-11-14T07:41:24.373Z,72.20
2017-11-14T07:43:52.552Z,75.40
2017-11-14T07:46:20.717Z,74.80
2017-11-14T07:48:48.871Z,74.10
2017-11-14T07:51:17.010Z,73.30
2017-11-14T07:53:45.231Z,71.40
2017-11-14T07:56:13.389Z,70.80
2017-11-14T07:58:42.315Z,70.40
2017-11-14T08:01:10.503Z,70.40
2017-11-14T08:03:39.482Z,69.90
2017-11-14T08:06:07.638Z,69.80
2017-11-14T08:08:35.803Z,71.30
2017-11-14T08:11:03.966Z,72.80
2017-11-14T08:13:32.260Z,70.20
2017-11-14T08:16:00.428Z,75.00
2017-11-14T08:18:28.575Z,75.70
2017-11-14T08:20:56.745Z,75.50
2017-11-14T08:23:24.951Z,74.70
2017-11-14T08:25:53.134Z,70.00
2017-11-14T08:28:21.309Z,67.90
2017-11-14T08:30:49.460Z,69.00
2017-11-14T08:33:18.481Z,69.70
2017-11-14T08:35:46.650Z,69.70
2017-11-14T08:38:14.809Z,66.70
2017-11-14T08:40:43.744Z,67.30
2017-11-14T08:43:12.043Z,67.30
2017-11-14T08:45:40.206Z,66.90
2017-11-14T08:48:08.359Z,69.70
2017-11-14T08:50:36.502Z,68.50
2017-11-14T08:53:04.668Z,71.70
2017-11-14T08:55:32.839Z,73.60
2017-11-14T08:58:01.759Z,73.50
2017-11-14T09:00:30.355Z,73.50
2017-11-14T09:02:58.529Z,74.70
2017-11-14T09:05:26.697Z,75.50
2017-11-14T09:07:54.857Z,74.50
2017-11-14T09:10:23.015Z,74.00
2017-11-14T09:12:51.872Z,72.20
2017-11-14T09:15:20.046Z,74.00
2017-11-14T09:17:48.216Z,76.30
2017-11-14T09:20:16.366Z,75.80
2017-11-14T09:22:44.522Z,74.10
2017-11-14T09:25:13.443Z,73.30
2017-11-14T09:27:41.598Z,73.30
2017-11-14T09:30:10.119Z,75.30
2017-11-14T09:32:38.275Z,76.30
2017-11-14T09:35:06.453Z,73.90
2017-11-14T09:37:34.631Z,75.30
2017-11-14T09:40:02.814Z,74.50
2017-11-14T09:42:31.351Z,73.90
2017-11-14T09:44:59.525Z,74.20
2017-11-14T09:47:27.668Z,73.30
2017-11-14T09:49:56.588Z,72.20
2017-11-14T09:52:25.516Z,68.50
2017-11-14T09:54:54.696Z,68.50
2017-11-14T09:57:22.833Z,67.90
2017-11-14T09:59:51.014Z,67.90
2017-11-14T10:02:19.862Z,66.50
2017-11-14T10:04:48.016Z,65.50
2017-11-14T10:07:16.221Z,66.10
2017-11-14T10:09:44.420Z,64.60
2017-11-14T10:12:12.601Z,60.90
2017-11-14T10:14:40.897Z,62.20
2017-11-14T10:17:09.105Z,63.30
2017-11-14T10:19:37.268Z,64.70
2017-11-14T10:22:05.424Z,64.30
2017-11-14T10:24:35.644Z,63.60
2017-11-14T10:27:03.795Z,64.70
2017-11-14T10:29:32.754Z,62.70
2017-11-14T10:32:00.916Z,62.70
2017-11-14T10:34:29.144Z,62.30
2017-11-14T10:36:57.315Z,63.40
2017-11-14T10:39:25.468Z,61.70
2017-11-14T10:41:53.658Z,59.60
2017-11-14T10:44:21.830Z,60.40
2017-11-14T10:46:50.060Z,59.80
2017-11-14T10:49:18.227Z,60.30
2017-11-14T10:51:46.386Z,58.80
2017-11-14T10:54:15.550Z,61.20
2017-11-14T10:56:43.732Z,58.00
2017-11-14T10:59:11.882Z,58.50
2017-11-14T11:01:40.035Z,58.00
2017-11-14T11:04:08.347Z,58.30
2017-11-14T11:06:36.522Z,59.70
2017-11-14T11:09:04.681Z,61.90
2017-11-14T11:11:32.833Z,64.80
2017-11-14T11:14:00.983Z,66.20
2017-11-14T11:16:34.245Z,66.10
2017-11-14T11:19:02.404Z,61.70
2017-11-14T11:21:30.583Z,61.90
2017-11-14T11:23:59.589Z,65.30
2017-11-14T11:26:27.748Z,65.30
2017-11-14T11:28:55.907Z,61.70
2017-11-14T11:31:24.056Z,63.50
2017-11-14T11:33:52.692Z,65.50
2017-11-14T11:36:20.870Z,59.90
2017-11-14T11:38:49.034Z,60.90
2017-11-14T11:41:17.215Z,62.40
2017-11-14T11:43:46.611Z,55.00
2017-11-14T11:46:14.780Z,55.00
2017-11-14T11:48:42.966Z,56.70
2017-11-14T11:51:11.133Z,55.00
2017-11-14T11:53:46.131Z,52.50
2017-11-14T11:56:14.306Z,51.40
2017-11-14T11:58:42.487Z,54.80
2017-11-14T12:01:10.634Z,54.80
2017-11-14T12:03:38.793Z,55.90
2017-11-14T12:06:06.950Z,53.10
2017-11-14T12:08:35.123Z,54.50
2017-11-14T12:11:03.287Z,53.10
2017-11-14T12:13:34.500Z,53.10
2017-11-14T12:16:02.719Z,53.00
2017-11-14T12:18:30.982Z,53.90
2017-11-14T12:21:00.035Z,56.70
2017-11-14T12:23:33.901Z,51.00
2017-11-14T12:26:02.295Z,50.90
2017-11-14T12:28:30.571Z,52.80
2017-11-14T12:30:59.402Z,49.20
2017-11-14T12:33:30.081Z,50.20
2017-11-14T12:35:59.416Z,48.90
2017-11-14T12:38:28.012Z,51.80
2017-11-14T12:40:57.051Z,52.60
2017-11-14T12:43:25.342Z,52.60
2017-11-14T12:45:53.614Z,54.00
2017-11-14T12:48:21.935Z,48.80
2017-11-14T12:50:50.227Z,48.30
2017-11-14T12:53:18.513Z,49.40
2017-11-14T12:55:48.562Z,50.60
2017-11-14T12:58:16.806Z,50.60
2017-11-14T13:00:45.042Z,51.30
2017-11-14T13:03:15.177Z,55.70
2017-11-14T13:05:43.484Z,55.50
2017-11-14T13:08:11.737Z,54.90
2017-11-14T13:10:39.974Z,54.90
2017-11-14T13:13:10.418Z,58.70
2017-11-14T13:15:40.524Z,52.80
2017-11-14T13:18:08.785Z,51.30
2017-11-14T13:20:37.650Z,55.70
2017-11-14T13:23:05.832Z,50.10
2017-11-14T13:25:34.686Z,55.90
2017-11-14T13:28:02.952Z,54.30
2017-11-14T13:30:33.183Z,53.60
2017-11-14T13:33:01.440Z,53.60
2017-11-14T13:35:30.308Z,52.20
2017-11-14T13:37:58.507Z,51.90
2017-11-14T13:40:28.318Z,55.20
2017-11-14T13:42:56.523Z,53.80
2017-11-14T13:45:25.717Z,53.00
2017-11-14T13:47:55.428Z,56.20
2017-11-14T13:50:23.710Z,55.70
2017-11-14T13:52:51.952Z,56.40
2017-11-14T13:55:20.973Z,55.00
2017-11-14T13:57:49.194Z,55.40
2017-11-14T14:00:19.582Z,56.30
2017-11-14T14:02:48.592Z,58.20
2017-11-14T14:05:17.969Z,56.30
2017-11-14T14:07:46.198Z,56.30
2017-11-14T14:10:14.452Z,55.00
2017-11-14T14:12:42.722Z,57.40
2017-11-14T14:15:12.110Z,56.80
2017-11-14T14:17:40.633Z,54.00
2017-11-14T14:20:09.122Z,51.70
2017-11-14T14:22:37.742Z,50.50
2017-11-14T14:25:07.388Z,49.40
2017-11-14T14:27:36.017Z,45.40
2017-11-14T14:30:06.752Z,47.10
2017-11-14T14:32:35.659Z,49.60
2017-11-14T14:35:04.508Z,51.00
2017-11-14T14:37:33.029Z,51.50
2017-11-14T14:40:01.643Z,53.90
2017-11-14T14:42:30.072Z,53.90
2017-11-14T14:44:58.554Z,55.70
2017-11-14T14:47:27.326Z,58.80
2017-11-14T14:49:56.398Z,56.90
2017-11-14T14:52:24.646Z,58.00
2017-11-14T14:54:53.918Z,57.90
2017-11-14T14:57:23.146Z,59.50
2017-11-14T14:59:51.394Z,61.90
2017-11-14T15:02:23.136Z,62.30
2017-11-14T15:04:52.137Z,61.50
2017-11-14T15:07:20.497Z,64.90
2017-11-14T15:09:48.684Z,60.00
2017-11-14T15:12:16.839Z,61.40
2017-11-14T15:14:45.754Z,62.00
2017-11-14T15:17:17.303Z,62.00
2017-11-14T15:19:45.475Z,63.80
2017-11-14T15:22:13.650Z,66.80
2017-11-14T15:24:42.479Z,68.00
2017-11-14T15:27:10.655Z,68.80
2017-11-14T15:29:38.868Z,69.70
2017-11-14T15:32:07.016Z,70.10
2017-11-14T15:34:35.512Z,70.40
2017-11-14T15:37:04.665Z,72.30
2017-11-14T15:39:32.831Z,73.40
2017-11-14T15:42:01.842Z,73.70
2017-11-14T15:44:30.084Z,76.90
2017-11-14T15:46:58.338Z,76.60
2017-11-14T15:49:26.551Z,77.20
2017-11-14T15:51:54.719Z,78.10
2017-11-14T15:54:22.955Z,77.10
2017-11-14T15:56:51.120Z,77.40
2017-11-14T15:59:20.063Z,77.90
2017-11-14T16:01:48.210Z,78.00
2017-11-14T16:04:16.454Z,78.40
2017-11-14T16:06:45.925Z,78.90
2017-11-14T16:09:14.112Z,79.00
2017-11-14T16:11:42.260Z,79.60
2017-11-14T16:17:07.307Z,77.40
2017-11-14T16:19:35.441Z,74.80
2017-11-14T16:22:03.599Z,74.40
2017-11-14T16:24:31.779Z,74.10
2017-11-14T16:26:59.945Z,75.50
2017-11-14T16:29:32.767Z,75.70
2017-11-14T16:32:00.939Z,77.80
2017-11-14T16:34:29.202Z,79.90
2017-11-14T16:36:58.061Z,80.90
2017-11-14T16:39:26.227Z,82.40
2017-11-14T16:41:55.891Z,83.60
2017-11-14T16:44:24.126Z,83.60
2017-11-14T16:46:52.372Z,82.70
2017-11-14T16:49:21.422Z,82.70
2017-11-14T16:51:49.571Z,82.70
2017-11-14T16:54:17.833Z,82.30
2017-11-14T16:56:46.045Z,81.10
2017-11-14T16:59:14.234Z,80.20
2017-11-14T17:01:42.428Z,75.20
2017-11-14T17:04:12.598Z,74.00
2017-11-14T17:06:40.753Z,76.90
2017-11-14T17:09:08.973Z,79.60
2017-11-14T17:11:37.116Z,80.10
2017-11-14T17:14:05.262Z,81.10
2017-11-14T17:16:33.414Z,83.50
2017-11-14T17:19:01.567Z,83.50
2017-11-14T17:21:29.727Z,84.40
2017-11-14T17:23:57.973Z,84.60
2017-11-14T17:26:26.466Z,85.40
2017-11-14T17:28:54.665Z,85.60
2017-11-14T17:31:22.862Z,84.40
2017-11-14T17:33:52.118Z,82.30
2017-11-14T17:36:20.268Z,81.10
2017-11-14T17:38:57.059Z,81.00
2017-11-14T17:41:25.247Z,80.90
2017-11-14T17:43:54.327Z,79.80
2017-11-14T17:46:22.504Z,79.50
2017-11-14T17:48:50.905Z,80.50
2017-11-14T17:51:19.252Z,82.20
2017-11-14T17:53:48.033Z,83.50
2017-11-14T17:56:17.663Z,83.60
2017-11-14T17:58:47.988Z,83.60
2017-11-14T18:01:16.126Z,83.00
2017-11-14T18:03:44.821Z,83.80
2017-11-14T18:06:13.023Z,84.00
2017-11-14T18:08:41.648Z,85.30
2017-11-14T18:11:11.064Z,85.20
2017-11-14T18:13:39.943Z,84.30
2017-11-14T18:16:10.560Z,84.00
2017-11-14T18:18:39.334Z,83.80
2017-11-14T18:21:07.755Z,82.60
2017-11-14T18:23:36.152Z,77.50
2017-11-14T18:26:04.310Z,78.50
2017-11-14T18:28:32.465Z,78.60
2017-11-14T18:31:02.015Z,79.00
2017-11-14T18:33:31.078Z,81.40
2017-11-14T18:36:02.485Z,81.40
2017-11-14T18:38:30.664Z,81.80
2017-11-14T18:41:00.513Z,82.80
2017-11-14T18:43:30.884Z,83.50
2017-11-14T18:46:00.265Z,83.00
2017-11-14T18:48:29.192Z,81.10
2017-11-14T18:50:58.680Z,81.10
2017-11-14T18:53:26.873Z,81.20
2017-11-14T18:55:55.080Z,77.70
2017-11-14T18:58:23.308Z,76.20
2017-11-14T19:00:52.584Z,77.30
2017-11-14T19:03:20.771Z,79.30
2017-11-14T19:05:49.527Z,80.40
2017-11-14T19:08:18.591Z,82.00
2017-11-14T19:10:48.153Z,82.60
2017-11-14T19:13:17.634Z,82.70
2017-11-14T19:15:47.668Z,82.70
2017-11-14T19:18:15.858Z,82.30
2017-11-14T19:20:45.347Z,83.70
2017-11-14T19:23:14.857Z,84.20
2017-11-14T19:25:43.330Z,84.10
2017-11-14T19:28:12.265Z,84.40
2017-11-14T19:30:41.373Z,84.30
2017-11-14T19:33:09.553Z,83.80
2017-11-14T19:35:37.884Z,83.30
2017-11-14T19:38:06.133Z,82.50
2017-11-14T19:40:34.511Z,81.30
2017-11-14T19:43:03.761Z,78.50
2017-11-14T19:45:31.966Z,78.80
2017-11-14T19:48:00.223Z,80.30
2017-11-14T19:50:29.233Z,80.80
2017-11-14T19:52:57.510Z,82.30
2017-11-14T19:55:25.785Z,82.60
2017-11-14T19:57:54.077Z,81.20
2017-11-14T20:00:22.520Z,81.30
2017-11-14T20:02:51.260Z,82.60
2017-11-14T20:05:20.924Z,81.70
2017-11-14T20:07:49.610Z,81.80
2017-11-14T20:10:18.015Z,79.50
2017-11-14T20:12:46.421Z,80.40
2017-11-14T20:15:15.208Z,79.70
2017-11-14T20:17:43.746Z,81.60
2017-11-14T20:20:12.262Z,80.90
2017-11-14T20:22:40.717Z,80.50
2017-11-14T20:25:12.885Z,80.90
2017-11-14T20:27:41.801Z,81.80
2017-11-14T20:30:10.654Z,79.50
2017-11-14T20:32:39.188Z,79.90
2017-11-14T20:35:07.720Z,79.70
2017-11-14T20:37:36.294Z,80.30
2017-11-14T20:40:04.808Z,80.90
2017-11-14T20:42:34.250Z,82.20
2017-11-14T20:45:02.746Z,82.80
2017-11-14T20:47:33.758Z,83.30
2017-11-14T20:50:02.246Z,82.60
2017-11-14T20:52:30.844Z,82.80
2017-11-14T20:55:01.160Z,82.90
2017-11-14T20:57:29.612Z,80.70
2017-11-14T20:59:58.696Z,78.70
2017-11-14T21:02:27.739Z,78.70
2017-11-14T21:04:56.037Z,78.90
2017-11-14T21:07:24.797Z,77.00
2017-11-14T21:09:53.679Z,76.90
2017-11-14T21:12:22.619Z,79.80
2017-11-14T21:14:51.874Z,79.50
2017-11-14T21:17:23.292Z,78.30
2017-11-14T21:19:51.479Z,78.30
2017-11-14T21:22:19.676Z,77.90
2017-11-14T21:24:48.853Z,77.00
2017-11-14T21:27:17.235Z,77.90
2017-11-14T21:29:45.396Z,77.70
2017-11-14T21:32:13.605Z,78.80
2017-11-14T21:34:42.726Z,81.30
2017-11-14T21:37:11.019Z,81.80
2017-11-14T21:39:39.183Z,80.00
2017-11-14T21:42:07.357Z,80.00
2017-11-14T21:44:35.633Z,80.60
2017-11-14T21:47:03.813Z,81.10
2017-11-14T21:49:32.226Z,81.50
2017-11-14T21:52:00.443Z,79.40
2017-11-14T21:54:29.488Z,78.80
2017-11-14T21:56:57.667Z,76.70
2017-11-14T21:59:25.836Z,76.50
2017-11-14T22:01:54.938Z,76.80
2017-11-14T22:04:24.253Z,78.10
2017-11-14T22:06:52.888Z,79.00
2017-11-14T22:09:21.249Z,81.00
2017-11-14T22:11:50.766Z,80.30
2017-11-14T22:14:19.079Z,80.50
2017-11-14T22:16:47.754Z,80.80
2017-11-14T22:19:15.931Z,81.00
2017-11-14T22:21:46.128Z,80.40
2017-11-14T22:24:14.405Z,79.60
2017-11-14T22:26:43.278Z,79.80
2017-11-14T22:29:11.504Z,76.10
2017-11-14T22:31:39.662Z,77.60
2017-11-14T22:34:07.971Z,79.10
2017-11-14T22:36:36.823Z,77.50
2017-11-14T22:39:04.989Z,78.30
2017-11-14T22:41:34.976Z,78.00
2017-11-14T22:44:03.535Z,78.10
2017-11-14T22:46:36.759Z,78.10
2017-11-14T22:49:05.321Z,78.80
2017-11-14T22:51:36.983Z,76.40
2017-11-14T22:54:08.943Z,76.10
2017-11-14T22:56:38.694Z,76.40
2017-11-14T22:59:06.851Z,76.40
2017-11-14T23:01:35.150Z,76.10
2017-11-14T23:04:03.426Z,75.40
2017-11-14T23:06:31.585Z,77.30
2017-11-14T23:09:00.523Z,78.40
2017-11-14T23:11:28.680Z,76.90
2017-11-14T23:13:56.917Z,76.10
2017-11-14T23:16:25.626Z,74.20
2017-11-14T23:18:53.793Z,75.70
2017-11-14T23:21:21.945Z,74.20
2017-11-14T23:23:50.222Z,73.40
2017-11-14T23:26:18.745Z,74.40
2017-11-14T23:28:46.911Z,75.90
2017-11-14T23:31:15.070Z,75.10
2017-11-14T23:33:44.366Z,73.20
2017-11-14T23:36:12.532Z,72.40
2017-11-14T23:38:40.747Z,74.60
2017-11-14T23:41:08.947Z,73.20
2017-11-14T23:43:38.727Z,73.10
2017-11-14T23:46:06.983Z,74.30
2017-11-14T23:48:35.140Z,74.40
2017-11-14T23:51:03.313Z,75.50
2017-11-14T23:53:31.592Z,75.20
2017-11-14T23:56:00.756Z,75.20
2017-11-14T23:58:28.911Z,76.10
